createdAt,value
2018-12-19T00:02:34.392Z,2.17
2018-12-19T00:05:15.296Z,3.17
2018-12-19T00:07:53.085Z,2.50
2018-12-19T00:10:30.963Z,6.37
2018-12-19T00:13:05.651Z,3.53
2018-12-19T00:15:39.788Z,4.17
2018-12-19T00:18:14.886Z,3.57
2018-12-19T00:20:52.034Z,3.83
2018-12-19T00:23:24.890Z,2.37
2018-12-19T00:26:00.229Z,6.67
2018-12-19T00:28:32.990Z,16.33
2018-12-19T00:31:08.738Z,5.43
2018-12-19T00:33:43.440Z,6.93
2018-12-19T00:36:16.070Z,8.27
2018-12-19T00:38:57.524Z,8.73
2018-12-19T00:41:36.078Z,5.63
2018-12-19T00:44:11.338Z,2.93
2018-12-19T00:46:46.687Z,3.40
2018-12-19T00:49:19.340Z,4.80
2018-12-19T00:51:53.644Z,4.27
2018-12-19T00:54:26.519Z,4.33
2018-12-19T00:57:01.345Z,3.57
2018-12-19T00:59:40.593Z,5.87
2018-12-19T01:02:21.314Z,8.03
2018-12-19T01:04:57.183Z,8.37
2018-12-19T01:07:30.105Z,14.23
2018-12-19T01:10:05.510Z,8.67
2018-12-19T01:12:41.924Z,7.00
2018-12-19T01:15:16.393Z,4.43
2018-12-19T01:17:51.366Z,5.33
2018-12-19T01:20:27.573Z,5.03
2018-12-19T01:23:02.549Z,4.20
2018-12-19T01:30:37.357Z,4.47
2018-12-19T01:33:12.189Z,4.23
2018-12-19T01:35:44.953Z,6.93
2018-12-19T01:38:26.984Z,4.10
2018-12-19T01:41:02.346Z,2.80
2018-12-19T01:43:37.548Z,5.37
2018-12-19T01:46:10.720Z,4.83
2018-12-19T01:48:43.644Z,3.03
2018-12-19T01:51:18.214Z,3.37
2018-12-19T01:53:51.158Z,2.83
2018-12-19T01:56:24.169Z,5.03
2018-12-19T01:58:57.396Z,2.53
2018-12-19T02:01:31.949Z,5.30
2018-12-19T02:04:06.983Z,2.50
2018-12-19T02:06:39.484Z,2.87
2018-12-19T02:09:12.470Z,2.43
2018-12-19T02:11:46.807Z,4.47
2018-12-19T02:14:19.863Z,3.40
2018-12-19T02:16:54.279Z,2.70
2018-12-19T02:19:26.929Z,4.17
2018-12-19T02:22:01.338Z,4.63
2018-12-19T02:24:34.129Z,3.07
2018-12-19T02:27:07.246Z,3.70
2018-12-19T02:29:40.168Z,3.17
2018-12-19T02:32:12.821Z,4.07
2018-12-19T02:34:48.118Z,4.33
2018-12-19T02:37:20.669Z,3.77
2018-12-19T02:39:53.763Z,3.17
2018-12-19T02:42:26.704Z,3.57
2018-12-19T02:45:01.170Z,3.20
2018-12-19T02:47:34.005Z,3.13
2018-12-19T02:50:08.402Z,5.37
2018-12-19T02:52:40.902Z,4.67
2018-12-19T02:55:15.910Z,4.30
2018-12-19T02:57:51.155Z,5.90
2018-12-19T03:00:25.022Z,4.20
2018-12-19T03:03:01.188Z,5.63
2018-12-19T03:05:36.282Z,4.73
2018-12-19T03:08:11.313Z,4.30
2018-12-19T03:10:47.726Z,5.70
2018-12-19T03:13:23.818Z,3.27
2018-12-19T03:15:59.168Z,2.87
2018-12-19T03:18:32.012Z,3.03
2018-12-19T03:21:05.002Z,3.90
2018-12-19T03:23:37.763Z,2.77
2018-12-19T03:26:10.302Z,2.63
2018-12-19T03:28:45.927Z,3.53
2018-12-19T03:31:19.084Z,3.23
2018-12-19T03:33:53.916Z,4.57
2018-12-19T03:36:26.553Z,2.93
2018-12-19T03:38:58.383Z,4.00
2018-12-19T03:44:06.334Z,3.07
2018-12-19T03:56:48.308Z,3.27
2018-12-19T03:59:22.482Z,2.50
2018-12-19T04:01:55.464Z,2.20
2018-12-19T04:04:30.742Z,1.50
2018-12-19T04:07:04.451Z,2.10
2018-12-19T04:09:43.585Z,3.80
2018-12-19T04:12:18.672Z,3.03
2018-12-19T04:14:53.692Z,3.77
2018-12-19T04:17:29.841Z,3.67
2018-12-19T04:20:04.824Z,7.23
2018-12-19T04:22:39.889Z,3.33
2018-12-19T04:25:20.908Z,6.23
2018-12-19T04:27:55.889Z,3.87
2018-12-19T04:30:28.617Z,4.13
2018-12-19T04:33:01.879Z,5.47
2018-12-19T04:35:35.111Z,4.57
2018-12-19T04:38:14.364Z,3.43
2018-12-19T04:40:51.464Z,5.10
2018-12-19T04:43:26.386Z,3.50
2018-12-19T04:46:03.144Z,6.87
2018-12-19T04:48:40.559Z,9.10
2018-12-19T04:51:13.294Z,12.50
2018-12-19T04:53:46.522Z,6.23
2018-12-19T04:56:21.796Z,5.67
2018-12-19T04:58:54.560Z,4.17
2018-12-19T05:01:29.692Z,4.43
2018-12-19T05:04:02.638Z,7.50
2018-12-19T05:06:37.767Z,3.30
2018-12-19T05:09:11.647Z,4.90
2018-12-19T05:11:42.983Z,4.20
2018-12-19T05:14:19.039Z,3.83
2018-12-19T05:16:52.265Z,5.80
2018-12-19T05:19:27.435Z,5.27
2018-12-19T05:22:00.329Z,5.40
2018-12-19T05:24:29.968Z,4.50
2018-12-19T05:27:05.214Z,6.50
2018-12-19T05:29:40.903Z,6.13
2018-12-19T05:32:16.652Z,7.47
2018-12-19T05:34:50.713Z,7.23
2018-12-19T05:37:24.733Z,6.03
2018-12-19T05:39:58.146Z,6.80
2018-12-19T05:42:33.544Z,6.30
2018-12-19T05:45:09.533Z,4.33
2018-12-19T05:47:43.429Z,6.80
2018-12-19T05:50:17.017Z,6.63
2018-12-19T05:52:50.313Z,7.80
2018-12-19T05:55:23.224Z,5.83
2018-12-19T05:57:57.759Z,7.27
2018-12-19T06:00:32.685Z,6.33
2018-12-19T06:03:07.480Z,6.80
2018-12-19T06:05:40.913Z,8.97
2018-12-19T06:08:15.814Z,10.67
2018-12-19T06:10:49.693Z,9.60
2018-12-19T06:13:22.144Z,7.33
2018-12-19T06:15:53.694Z,8.60
2018-12-19T06:18:26.605Z,8.90
2018-12-19T06:21:02.137Z,9.07
2018-12-19T06:23:37.864Z,15.37
2018-12-19T06:26:18.077Z,9.80
2018-12-19T06:28:53.788Z,8.93
2018-12-19T06:31:32.902Z,10.40
2018-12-19T06:34:08.651Z,8.77
2018-12-19T06:36:46.360Z,9.83
2018-12-19T06:39:18.952Z,8.57
2018-12-19T06:41:54.022Z,12.03
2018-12-19T06:44:26.782Z,11.57
2018-12-19T06:47:02.782Z,10.37
2018-12-19T06:49:37.159Z,11.47
2018-12-19T06:52:12.614Z,11.57
2018-12-19T06:54:47.335Z,11.20
2018-12-19T06:57:20.182Z,11.87
2018-12-19T06:59:55.490Z,10.10
2018-12-19T07:02:30.197Z,9.00
2018-12-19T07:05:02.888Z,12.53
2018-12-19T07:07:38.216Z,10.03
2018-12-19T07:10:11.126Z,9.20
2018-12-19T07:12:45.652Z,9.67
2018-12-19T07:15:18.551Z,9.47
2018-12-19T07:17:51.730Z,11.13
2018-12-19T07:20:26.632Z,11.20
2018-12-19T07:23:01.418Z,10.67
2018-12-19T07:25:37.137Z,8.47
2018-12-19T07:28:13.333Z,9.67
2018-12-19T07:30:50.531Z,12.50
2018-12-19T07:33:25.073Z,10.10
2018-12-19T07:36:00.342Z,10.10
2018-12-19T07:38:35.991Z,9.07
2018-12-19T07:41:12.218Z,7.37
2018-12-19T07:43:44.992Z,9.70
2018-12-19T07:46:19.906Z,16.90
2018-12-19T07:48:55.363Z,12.93
2018-12-19T07:51:30.189Z,12.03
2018-12-19T07:54:05.267Z,10.37
2018-12-19T07:56:38.760Z,11.27
2018-12-19T07:59:14.006Z,10.27
2018-12-19T08:01:48.487Z,8.67
2018-12-19T08:04:25.437Z,10.73
2018-12-19T08:06:59.222Z,10.17
2018-12-19T08:09:34.555Z,10.27
2018-12-19T08:12:37.488Z,9.47
2018-12-19T08:15:12.240Z,10.83
2018-12-19T08:17:45.271Z,8.97
2018-12-19T08:20:18.404Z,7.23
2018-12-19T08:22:51.335Z,9.33
2018-12-19T08:25:29.451Z,8.47
2018-12-19T08:28:02.456Z,10.27
2018-12-19T08:36:28.457Z,10.30
2018-12-19T08:39:16.108Z,10.03
2018-12-19T08:41:51.802Z,8.37
2018-12-19T08:47:37.336Z,12.13
2018-12-19T08:50:08.637Z,10.90
2018-12-19T08:52:40.757Z,10.07
2018-12-19T08:55:09.991Z,9.27
2018-12-19T08:57:41.648Z,12.07
2018-12-19T09:00:12.250Z,10.63
2018-12-19T09:02:43.887Z,13.40
2018-12-19T09:05:14.318Z,11.70
2018-12-19T09:07:45.242Z,9.23
2018-12-19T09:10:14.912Z,8.10
2018-12-19T09:12:44.583Z,8.40
2018-12-19T09:15:28.458Z,8.20
2018-12-19T09:17:57.687Z,10.83
2018-12-19T09:20:26.801Z,11.83
2018-12-19T09:22:58.356Z,10.93
2018-12-19T09:25:27.747Z,9.07
2018-12-19T09:27:58.352Z,8.20
2018-12-19T09:30:31.651Z,8.87
2018-12-19T09:33:01.807Z,10.07
2018-12-19T09:35:31.090Z,8.50
2018-12-19T09:38:00.373Z,7.10
2018-12-19T09:40:29.867Z,7.93
2018-12-19T09:43:00.845Z,8.87
2018-12-19T09:45:31.000Z,11.87
2018-12-19T09:48:00.734Z,9.63
2018-12-19T09:50:30.711Z,12.13
2018-12-19T09:53:01.100Z,11.53
2018-12-19T09:55:30.631Z,7.20
2018-12-19T09:57:59.801Z,10.20
2018-12-19T10:00:29.334Z,7.60
2018-12-19T10:02:58.654Z,10.87
2018-12-19T10:05:28.383Z,9.63
2018-12-19T10:07:57.533Z,7.30
2018-12-19T10:10:45.417Z,10.63
2018-12-19T10:13:14.809Z,10.57
2018-12-19T10:15:47.500Z,7.63
2018-12-19T10:18:17.270Z,7.50
2018-12-19T10:20:46.921Z,9.63
2018-12-19T10:23:16.066Z,6.87
2018-12-19T10:25:47.380Z,8.13
2018-12-19T10:28:21.845Z,7.40
2018-12-19T10:30:51.106Z,10.77
2018-12-19T10:33:21.306Z,7.57
2018-12-19T10:35:51.431Z,6.77
2018-12-19T10:38:24.755Z,7.73
2018-12-19T10:40:53.960Z,7.73
2018-12-19T10:43:28.069Z,6.80
2018-12-19T10:45:57.602Z,8.13
2018-12-19T10:48:26.761Z,7.23
2018-12-19T10:50:55.912Z,6.10
2018-12-19T10:53:26.396Z,9.53
2018-12-19T10:55:56.327Z,7.43
2018-12-19T10:58:26.567Z,7.27
2018-12-19T11:01:01.874Z,6.73
2018-12-19T11:03:31.330Z,6.57
2018-12-19T11:06:11.197Z,7.10
2018-12-19T11:08:41.725Z,14.20
2018-12-19T11:11:11.786Z,10.73
2018-12-19T11:13:42.745Z,10.00
2018-12-19T11:16:14.446Z,8.40
2018-12-19T11:18:44.530Z,10.87
2018-12-19T11:21:19.911Z,6.30
2018-12-19T11:23:51.124Z,7.37
2018-12-19T11:26:23.009Z,7.10
2018-12-19T11:28:52.155Z,8.00
2018-12-19T11:31:23.705Z,11.80
2018-12-19T11:33:52.812Z,4.47
2018-12-19T11:36:26.283Z,6.13
2018-12-19T11:38:56.160Z,4.93
2018-12-19T11:41:25.709Z,5.13
2018-12-19T11:43:56.178Z,7.77
2018-12-19T11:46:25.435Z,6.50
2018-12-19T11:48:55.538Z,6.93
2018-12-19T11:51:24.790Z,14.67
2018-12-19T11:53:59.080Z,10.23
2018-12-19T11:56:28.852Z,16.73
2018-12-19T11:58:59.248Z,9.30
2018-12-19T12:01:30.136Z,7.00
2018-12-19T12:04:00.030Z,7.80
2018-12-19T12:06:29.421Z,6.77
2018-12-19T12:08:58.570Z,8.67
2018-12-19T12:11:29.762Z,6.73
2018-12-19T12:13:59.089Z,8.87
2018-12-19T12:16:31.274Z,5.17
2018-12-19T12:19:03.461Z,8.63
2018-12-19T12:21:32.686Z,12.70
2018-12-19T12:24:01.831Z,17.63
2018-12-19T12:26:31.021Z,12.90
2018-12-19T12:29:00.262Z,21.00
2018-12-19T12:31:29.421Z,16.67
2018-12-19T12:33:58.702Z,9.23
2018-12-19T12:36:28.276Z,10.20
2018-12-19T12:38:58.659Z,14.20
2018-12-19T12:41:29.040Z,17.33
2018-12-19T12:43:58.797Z,17.37
2018-12-19T12:46:28.417Z,14.30
2018-12-19T12:48:57.846Z,16.83
2018-12-19T12:51:28.521Z,10.20
2018-12-19T12:54:00.838Z,15.00
2018-12-19T12:56:30.563Z,13.90
2018-12-19T12:59:02.841Z,14.03
2018-12-19T13:01:34.162Z,4.27
2018-12-19T13:04:05.183Z,6.30
2018-12-19T13:06:38.099Z,18.30
2018-12-19T13:09:14.847Z,16.03
2018-12-19T13:11:45.431Z,10.97
2018-12-19T13:14:15.850Z,9.87
2018-12-19T13:16:48.863Z,11.00
2018-12-19T13:19:19.825Z,14.57
2018-12-19T13:21:49.126Z,16.03
2018-12-19T13:24:19.562Z,12.10
2018-12-19T13:26:53.920Z,10.17
2018-12-19T13:29:24.335Z,7.47
2018-12-19T13:31:55.822Z,15.47
2018-12-19T13:34:25.935Z,21.00
2018-12-19T13:36:59.921Z,7.80
2018-12-19T13:39:29.785Z,11.83
2018-12-19T13:42:05.412Z,16.93
2018-12-19T13:44:34.094Z,9.07
2018-12-19T13:47:07.810Z,9.53
2018-12-19T13:49:39.694Z,10.57
2018-12-19T13:52:10.525Z,3.93
2018-12-19T13:54:40.031Z,6.53
2018-12-19T13:57:09.267Z,3.80
2018-12-19T13:59:44.418Z,4.90
2018-12-19T14:02:16.627Z,3.90
2018-12-19T14:04:48.358Z,5.43
2018-12-19T14:07:17.907Z,5.90
2018-12-19T14:09:47.336Z,7.23
2018-12-19T14:12:16.915Z,7.77
2018-12-19T14:14:48.752Z,5.93
2018-12-19T14:17:17.945Z,6.90
2018-12-19T14:19:47.952Z,4.97
2018-12-19T14:22:19.502Z,6.43
2018-12-19T14:24:48.767Z,4.33
2018-12-19T14:27:24.649Z,5.73
2018-12-19T14:30:00.192Z,6.13
2018-12-19T14:32:35.472Z,3.07
2018-12-19T14:35:08.037Z,4.50
2018-12-19T14:37:41.432Z,3.77
2018-12-19T14:40:17.821Z,5.20
2018-12-19T14:42:52.734Z,4.47
2018-12-19T14:45:22.475Z,5.53
2018-12-19T14:47:51.827Z,6.47
2018-12-19T14:50:28.596Z,5.60
2018-12-19T14:53:00.927Z,3.70
2018-12-19T14:55:37.067Z,3.43
2018-12-19T14:58:08.662Z,5.07
2018-12-19T15:00:39.356Z,4.67
2018-12-19T15:03:10.851Z,2.97
2018-12-19T15:05:45.459Z,3.60
2018-12-19T15:08:33.737Z,3.57
2018-12-19T15:11:15.329Z,5.87
2018-12-19T15:13:47.712Z,4.87
2018-12-19T15:16:26.882Z,4.67
2018-12-19T15:18:58.635Z,6.93
2018-12-19T15:21:29.251Z,4.23
2018-12-19T15:24:00.217Z,4.67
2018-12-19T15:26:29.583Z,4.73
2018-12-19T15:29:17.902Z,5.87
2018-12-19T15:34:52.563Z,5.67
2018-12-19T15:40:30.634Z,6.70
2018-12-19T15:43:16.044Z,6.67
2018-12-19T15:51:36.454Z,7.73
2018-12-19T15:54:19.134Z,11.10
2018-12-19T15:57:08.985Z,7.67
2018-12-19T15:59:54.238Z,8.63
2018-12-19T16:02:43.325Z,5.30
2018-12-19T16:29:27.625Z,5.83
2018-12-19T16:32:18.224Z,9.10
2018-12-19T16:37:49.975Z,8.97
2018-12-19T16:40:31.842Z,4.87
2018-12-19T16:43:21.661Z,6.60
2018-12-19T16:58:13.238Z,5.83
2018-12-19T17:04:02.998Z,12.07
2018-12-19T17:06:51.875Z,10.33
2018-12-19T17:09:32.133Z,11.20
2018-12-19T17:15:21.322Z,9.63
2018-12-19T17:18:12.824Z,11.03
2018-12-19T17:21:20.460Z,13.53
2018-12-19T17:26:55.189Z,9.87
2018-12-19T17:29:32.085Z,9.23
2018-12-19T17:32:19.494Z,8.90
2018-12-19T17:35:05.963Z,7.57
2018-12-19T17:40:35.523Z,5.97
2018-12-19T17:43:15.349Z,10.47
2018-12-19T17:45:56.040Z,4.40
2018-12-19T17:51:41.809Z,4.93
2018-12-19T17:57:15.742Z,6.73
2018-12-19T18:00:08.924Z,5.20
2018-12-19T18:11:42.273Z,5.10
2018-12-19T18:14:33.059Z,7.07
2018-12-19T18:17:07.528Z,8.03
2018-12-19T18:19:39.996Z,4.27
2018-12-19T18:22:29.995Z,12.40
2018-12-19T18:28:07.541Z,14.77
2018-12-19T18:30:39.108Z,11.70
2018-12-19T18:33:24.245Z,9.33
2018-12-19T18:36:09.909Z,9.73
2018-12-19T18:38:46.330Z,7.90
2018-12-19T18:41:27.494Z,6.17
2018-12-19T18:44:15.386Z,10.03
2018-12-19T18:49:41.246Z,11.20
2018-12-19T18:55:21.642Z,11.43
2018-12-19T18:58:03.175Z,10.30
2018-12-19T19:00:40.092Z,11.43
2018-12-19T19:03:21.967Z,12.20
2018-12-19T19:06:01.263Z,12.17
2018-12-19T19:08:40.489Z,12.43
2018-12-19T19:11:20.772Z,13.90
2018-12-19T19:13:59.074Z,15.73
2018-12-19T19:16:32.011Z,11.20
2018-12-19T19:19:08.388Z,16.10
2018-12-19T19:27:48.828Z,7.97
2018-12-19T19:30:24.384Z,8.00
2018-12-19T19:33:03.540Z,7.13
2018-12-19T19:35:39.586Z,7.13
2018-12-19T19:38:12.183Z,10.00
2018-12-19T19:40:54.203Z,6.67
2018-12-19T19:43:29.567Z,7.23
2018-12-19T19:46:16.674Z,6.83
2018-12-19T19:48:55.753Z,5.37
2018-12-19T19:51:32.532Z,4.50
2018-12-19T19:54:09.696Z,4.80
2018-12-19T19:56:52.405Z,6.13
2018-12-19T19:59:34.563Z,7.77
2018-12-19T20:02:18.387Z,7.33
2018-12-19T20:04:59.292Z,3.87
2018-12-19T20:07:36.505Z,6.23
2018-12-19T20:10:18.497Z,6.03
2018-12-19T20:12:56.501Z,7.33
2018-12-19T20:15:40.245Z,7.10
2018-12-19T20:18:21.982Z,3.93
2018-12-19T20:21:00.679Z,3.80
2018-12-19T20:23:43.857Z,5.60
2018-12-19T20:26:21.908Z,7.43
2018-12-19T20:28:58.956Z,7.50
2018-12-19T20:31:34.378Z,5.07
2018-12-19T20:34:21.802Z,6.37
2018-12-19T20:36:57.537Z,9.83
2018-12-19T20:42:43.739Z,6.97
2018-12-19T20:45:23.331Z,4.40
2018-12-19T20:48:14.753Z,10.33
2018-12-19T20:50:55.705Z,8.43
2018-12-19T20:53:44.435Z,9.50
2018-12-19T20:56:33.092Z,8.10
2018-12-19T20:59:09.996Z,7.57
2018-12-19T21:01:51.737Z,5.77
2018-12-19T21:04:31.134Z,6.70
2018-12-19T21:07:06.859Z,11.03
2018-12-19T21:09:44.341Z,6.83
2018-12-19T21:12:24.796Z,6.40
2018-12-19T21:15:07.099Z,10.43
2018-12-19T21:17:56.530Z,6.50
2018-12-19T21:20:35.006Z,6.53
2018-12-19T21:23:15.946Z,7.73
2018-12-19T21:26:02.641Z,8.47
2018-12-19T21:28:40.200Z,10.87
2018-12-19T21:31:23.532Z,6.83
2018-12-19T21:34:00.388Z,8.90
2018-12-19T21:36:53.278Z,6.83
2018-12-19T21:45:29.370Z,10.97
2018-12-19T21:48:06.788Z,8.33
2018-12-19T21:50:48.588Z,11.23
2018-12-19T21:53:30.064Z,10.10
2018-12-19T21:58:57.833Z,6.27
2018-12-19T22:01:45.449Z,10.13
2018-12-19T22:07:15.254Z,8.30
2018-12-19T22:09:55.579Z,8.33
2018-12-19T22:12:28.206Z,6.33
2018-12-19T22:15:16.757Z,5.93
2018-12-19T22:17:54.662Z,7.33
2018-12-19T22:20:28.212Z,6.53
2018-12-19T22:23:02.813Z,7.17
2018-12-19T22:25:39.045Z,10.43
2018-12-19T22:28:17.535Z,10.37
2018-12-19T22:30:58.447Z,10.80
2018-12-19T22:33:33.861Z,8.37
2018-12-19T22:36:19.568Z,8.07
2018-12-19T22:42:05.955Z,17.90
2018-12-19T22:44:40.901Z,29.37
2018-12-19T22:47:28.658Z,30.57
2018-12-19T22:50:12.418Z,42.27
2018-12-19T22:52:49.050Z,60.83
2018-12-19T22:55:24.411Z,73.47
2018-12-19T23:00:58.590Z,63.40
2018-12-19T23:03:36.485Z,57.03
2018-12-19T23:06:20.918Z,67.60
2018-12-19T23:08:54.380Z,68.57
2018-12-19T23:11:38.018Z,70.47
2018-12-19T23:14:15.433Z,48.80
2018-12-19T23:16:48.972Z,39.23
2018-12-19T23:19:22.679Z,44.13
2018-12-19T23:22:03.654Z,50.73
2018-12-19T23:27:43.247Z,45.77
2018-12-19T23:30:21.456Z,37.03
2018-12-19T23:33:03.524Z,32.27
2018-12-19T23:35:51.723Z,25.67
2018-12-19T23:38:35.522Z,21.93
2018-12-19T23:41:14.810Z,17.70
2018-12-19T23:43:56.969Z,10.60
2018-12-19T23:46:43.439Z,14.67
2018-12-19T23:52:12.364Z,8.63
2018-12-19T23:54:50.901Z,7.40
2018-12-19T23:57:26.734Z,8.40
2018-12-19T23:59:59.744Z,6.30
